Accueil
METAR-TAF:

METAR-TAF

Aéroports :

Aéroport international Gengis Khan

Oulan-Bator, Mongolie

latitude: 47-55N, longitude: 106-52E, altitude: 1306 m

Observation

Le bulletin a été fait il y a 26 minutes, à 04:30 UTC
Vent 2 kt de direction variable
Température -15°C
Humidité 50%
Pression 1029 hPa
Visibilité: 5000 m
fumée

METAR: ZMUB 160430Z VRB01MPS 5000NW FU NSC M15/M23 Q1029 NOSIG RMK QFE663.3 47 NW MO

Heure: 12:56 (04:56 UTC)

Prévision

Le bulletin a été fait il y a 6 heures et 16 minutes, à 22:40 UTC
Prévision valable du 16 à 00 UTC au 17 à 06 UTC
Vent 4 kt de direction variable
Visibilité: 4000 m
Nuages épars à une hauteur de 10000 ft
fumée
Evoluant progressivement
du 16 à 04 UTC au 16 à 06 UTC
Visibilité: 6000 m
Evoluant progressivement
du 17 à 00 UTC au 17 à 02 UTC
Visibilité: 4000 m
fumée

TAF: ZMUB 152240Z 1600/1706 VRB02MPS 4000 FU SCT100 TXM09/1607Z TNM28/1623Z BECMG 1604/1606 6000 BECMG 1700/1702 4000 FU

Observations et prévisions météorologiques de plus de 4000 aéroports (messages METAR et TAF).

Les stations disponibles sont représentées par des disques jaunes et rouges sur la carte.

Passer la souris dessus pour voir le nom de la station.

Cliquer dessus pour voir les observations et prévisions météorologiques.

Pour changer de carte: cliquez sur les boutons verts avec une croix noire pour zoomer, sur le bouton vert avec un tiret pour effectuer un zoom arrière, ou sur les flèches vertes pour les cartes adjacentes.


METAR-TAF: